Airfield :
LOGIN :

Register | Disclaimer

   EN    FR    IT 

 










Legend :    VFR   Marginal VFR   IFR   Intensive IFR   Very Intensive IFR
Visi :
Ceiling :
>= 8 km
>= 3000ft
5 to 8 km
1000 to 3000 ft
1500m to 5 km
500 to 1000 ft
800 to 1500m
200 to 500 ft
< 800m
< 200 ft
Symbols :   Thunderstorms  Fog  Heavy snow  Heavy precipitations  Wind > 20 kt
SIGMETs :     Misc.  Thunderstorms  Icing  Turbulence  Mountain Waves  Volcanic Ashes






- Airport Elevation : 614 ft
- IATA code : CRL


EBCI - Charleroi

CURRENT METAR :
  • 232220Z 18008KT 9999 BKN006 BKN040 08/07 Q1027 NOSIG

EXPIRED METARs :
  • 232150Z 18008KT 9999 BKN006 BKN040 08/07 Q1027 NOSIG
  • 232120Z 19008KT 9999 BKN005 BKN007 08/07 Q1028 NOSIG
  • 232050Z 21009KT 9999 BKN005 BKN007 08/07 Q1028 NOSIG
  • 232020Z 20008KT 9999 BKN006 08/07 Q1028 NOSIG
  • 231950Z 19007KT 9999 BKN006 08/07 Q1028 NOSIG
  • 231920Z 18007KT 9999 SCT006 08/07 Q1028 NOSIG

TAF TAF EBCI
Valid from the 23 at 18:00 until the 25 at 00:00 UTC


231710Z 2318/2424 20005KT 8000 BKN013
TEMPO 2318/2409 4000 BR SCT004 BKN006
PROB40
TEMPO 2320/2409 1400 BR BKN003
BECMG 2409/2411 SCT020



MET'MAP, your aeronautical weather chart ! - Copyright ORBIFLY December 2007 - Disclaimer

ORBIFLY MET'MAP TEAM :

Programming & Development : Alexandra Zaïnal
Concept & original design : Baudouin d'Aumeries
Assistance for programming : Marc-Olivier Méhu
Technical & hardware support : Manuel Goepfert

Contact : metmap@orbifly.com




SOURCES & CREDITS :

   NOAA